createdAt,value
2023-03-07T00:02:52.292Z,-4.23
2023-03-07T00:06:07.002Z,-4.24
2023-03-07T00:09:10.057Z,-4.32
2023-03-07T00:12:12.472Z,-4.37
2023-03-07T00:15:14.753Z,-4.32
2023-03-07T00:18:17.136Z,-4.37
2023-03-07T00:21:21.304Z,-4.31
2023-03-07T00:24:23.688Z,-4.34
2023-03-07T00:27:26.041Z,-4.33
2023-03-07T00:30:28.325Z,-4.34
2023-03-07T00:33:30.803Z,-4.41
2023-03-07T00:36:33.306Z,-4.37
2023-03-07T00:42:36.938Z,-4.43
2023-03-07T00:45:39.255Z,-4.37
2023-03-07T00:48:41.764Z,-4.47
2023-03-07T00:51:44.044Z,-4.43
2023-03-07T00:54:46.407Z,-4.42
2023-03-07T00:57:48.826Z,-4.25
2023-03-07T01:00:51.558Z,-4.29
2023-03-07T01:03:54.494Z,-4.26
2023-03-07T01:06:56.890Z,-4.23
2023-03-07T01:09:59.368Z,-4.27
2023-03-07T01:13:01.769Z,-4.26
2023-03-07T01:16:14.234Z,-4.31
2023-03-07T01:19:17.668Z,-4.50
2023-03-07T01:22:19.969Z,-4.34
2023-03-07T01:25:22.560Z,-4.34
2023-03-07T01:28:25.043Z,-4.32
2023-03-07T01:31:28.015Z,-4.24
2023-03-07T01:34:30.953Z,-4.33
2023-03-07T01:37:33.415Z,-4.35
2023-03-07T01:40:39.083Z,-4.35
2023-03-07T01:43:42.436Z,-4.43
2023-03-07T01:46:55.359Z,-4.45
2023-03-07T01:50:12.644Z,-4.48
2023-03-07T01:53:16.598Z,-4.43
2023-03-07T01:56:21.502Z,-4.47
2023-03-07T01:59:35.036Z,-4.47
2023-03-07T02:02:40.261Z,-4.49
2023-03-07T02:05:54.527Z,-4.46
2023-03-07T02:08:57.567Z,-4.51
2023-03-07T02:12:01.770Z,-4.45
2023-03-07T02:15:05.979Z,-4.54
2023-03-07T02:18:09.169Z,-4.62
2023-03-07T02:21:24.863Z,-4.57
2023-03-07T02:24:34.358Z,-4.53
2023-03-07T02:27:37.877Z,-4.54
2023-03-07T02:30:57.116Z,-4.63
2023-03-07T02:34:00.876Z,-4.80
2023-03-07T02:37:20.290Z,-4.76
2023-03-07T02:40:25.465Z,-4.80
2023-03-07T02:43:28.408Z,-4.76
2023-03-07T02:46:30.868Z,-4.78
2023-03-07T02:49:33.491Z,-4.68
2023-03-07T02:52:35.847Z,-4.65
2023-03-07T02:55:38.233Z,-4.71
2023-03-07T02:58:41.691Z,-4.85
2023-03-07T03:01:44.085Z,-4.77
2023-03-07T03:04:46.689Z,-4.86
2023-03-07T03:07:49.603Z,-4.77
2023-03-07T03:10:55.396Z,-4.75
2023-03-07T03:14:00.502Z,-4.67
2023-03-07T03:17:04.569Z,-4.77
2023-03-07T03:20:08.975Z,-4.78
2023-03-07T03:23:11.454Z,-4.75
2023-03-07T03:26:13.953Z,-4.81
2023-03-07T03:29:16.361Z,-4.77
2023-03-07T03:32:18.907Z,-4.79
2023-03-07T03:35:21.301Z,-4.85
2023-03-07T03:38:24.341Z,-4.98
2023-03-07T03:41:27.271Z,-4.94
2023-03-07T03:44:30.175Z,-4.89
2023-03-07T03:47:33.384Z,-4.96
2023-03-07T03:50:36.106Z,-4.89
2023-03-07T03:53:39.863Z,-4.91
2023-03-07T03:56:42.214Z,-4.86
2023-03-07T03:59:45.510Z,-4.86
2023-03-07T04:02:49.337Z,-4.91
2023-03-07T04:05:53.655Z,-4.98
2023-03-07T04:08:56.390Z,-4.92
2023-03-07T04:11:58.937Z,-5.03
2023-03-07T04:15:01.942Z,-5.07
2023-03-07T04:18:04.492Z,-4.96
2023-03-07T04:21:07.627Z,-5.02
2023-03-07T04:24:10.522Z,-4.80
2023-03-07T04:27:12.912Z,-4.73
2023-03-07T04:30:15.546Z,-4.74
2023-03-07T04:33:17.911Z,-4.83
2023-03-07T04:36:20.693Z,-4.85
2023-03-07T04:39:23.228Z,-4.88
2023-03-07T04:42:27.309Z,-4.93
2023-03-07T04:45:31.802Z,-4.89
2023-03-07T04:48:34.370Z,-5.08
2023-03-07T04:51:36.891Z,-4.98
2023-03-07T04:54:41.010Z,-4.89
2023-03-07T04:57:43.912Z,-5.00
2023-03-07T05:00:48.275Z,-5.04
2023-03-07T05:03:50.933Z,-5.15
2023-03-07T05:06:55.731Z,-4.99
2023-03-07T05:09:58.177Z,-5.04
2023-03-07T05:13:01.780Z,-5.09
2023-03-07T05:16:04.448Z,-5.08
2023-03-07T05:19:07.484Z,-5.18
2023-03-07T05:22:09.983Z,-5.17
2023-03-07T05:25:12.637Z,-5.12
2023-03-07T05:28:17.086Z,-5.13
2023-03-07T05:31:19.532Z,-5.03
2023-03-07T05:34:22.511Z,-5.02
2023-03-07T05:37:25.145Z,-4.98
2023-03-07T05:40:27.892Z,-4.99
2023-03-07T05:43:30.359Z,-4.95
2023-03-07T05:46:33.207Z,-4.77
2023-03-07T05:49:35.992Z,-4.71
2023-03-07T05:52:38.768Z,-4.75
2023-03-07T05:55:41.487Z,-4.76
2023-03-07T05:58:44.274Z,-4.69
2023-03-07T06:01:46.858Z,-4.70
2023-03-07T06:04:49.772Z,-4.65
2023-03-07T06:07:52.142Z,-4.81
2023-03-07T06:10:55.053Z,-4.72
2023-03-07T06:13:58.114Z,-4.56
2023-03-07T06:17:02.154Z,-4.60
2023-03-07T06:20:04.963Z,-4.55
2023-03-07T06:23:07.589Z,-4.40
2023-03-07T06:26:12.497Z,-4.50
2023-03-07T06:29:16.406Z,-4.60
2023-03-07T06:32:18.734Z,-4.31
2023-03-07T06:35:21.610Z,-4.52
2023-03-07T06:38:25.994Z,-4.63
2023-03-07T06:41:28.810Z,-4.56
2023-03-07T06:44:33.482Z,-4.49
2023-03-07T06:47:35.813Z,-4.41
2023-03-07T06:50:39.622Z,-4.30
2023-03-07T06:53:42.361Z,-4.03
2023-03-07T06:56:45.635Z,-3.91
2023-03-07T06:59:53.814Z,-4.07
2023-03-07T07:02:56.524Z,-4.04
2023-03-07T07:05:59.289Z,-4.06
2023-03-07T07:09:02.007Z,-3.94
2023-03-07T07:12:09.521Z,-4.13
2023-03-07T07:15:12.314Z,-3.94
2023-03-07T07:18:14.756Z,-3.88
2023-03-07T07:21:18.361Z,-3.83
2023-03-07T07:24:23.776Z,-3.61
2023-03-07T07:27:28.672Z,-3.63
2023-03-07T07:30:32.009Z,-3.84
2023-03-07T07:33:35.890Z,-3.63
2023-03-07T07:36:39.997Z,-3.62
2023-03-07T07:39:44.027Z,-3.47
2023-03-07T07:42:56.034Z,-3.43
2023-03-07T07:46:13.956Z,-3.17
2023-03-07T07:49:18.512Z,-3.09
2023-03-07T07:52:21.548Z,-2.98
2023-03-07T07:55:25.192Z,-3.16
2023-03-07T07:58:27.868Z,-3.01
2023-03-07T08:01:30.909Z,-2.86
2023-03-07T08:04:33.495Z,-2.93
2023-03-07T08:07:35.865Z,-2.88
2023-03-07T08:10:43.135Z,-2.82
2023-03-07T08:13:45.738Z,-2.90
2023-03-07T08:16:48.174Z,-2.68
2023-03-07T08:19:50.905Z,-2.54
2023-03-07T08:22:54.033Z,-2.44
2023-03-07T08:25:56.430Z,-2.31
2023-03-07T08:28:59.099Z,-2.21
2023-03-07T08:32:02.033Z,-2.04
2023-03-07T08:35:04.592Z,-1.86
2023-03-07T08:38:07.023Z,-1.87
2023-03-07T08:41:09.987Z,-1.90
2023-03-07T08:44:12.397Z,-1.63
2023-03-07T08:47:14.958Z,-1.26
2023-03-07T08:50:17.637Z,-1.37
2023-03-07T08:53:20.368Z,-1.44
2023-03-07T08:56:22.751Z,-1.71
2023-03-07T08:59:25.229Z,-1.91
2023-03-07T09:02:27.578Z,-1.47
2023-03-07T09:05:30.545Z,-1.26
2023-03-07T09:08:33.513Z,-1.25
2023-03-07T09:11:36.205Z,-1.03
2023-03-07T09:14:38.621Z,-1.17
2023-03-07T09:17:41.101Z,-0.98
2023-03-07T09:20:43.553Z,-1.25
2023-03-07T09:23:45.991Z,-1.42
2023-03-07T09:26:48.349Z,-1.47
2023-03-07T09:29:50.940Z,-1.58
2023-03-07T09:32:53.484Z,-1.43
2023-03-07T09:35:55.984Z,-1.50
2023-03-07T09:38:58.484Z,-1.40
2023-03-07T09:42:22.565Z,-1.23
2023-03-07T09:45:34.188Z,-1.10
2023-03-07T09:48:51.426Z,-1.26
2023-03-07T09:51:59.505Z,-1.03
2023-03-07T09:55:16.767Z,-0.61
2023-03-07T09:58:23.246Z,-0.74
2023-03-07T10:01:27.677Z,-0.82
2023-03-07T10:05:02.165Z,-0.87
2023-03-07T10:08:05.566Z,-0.87
2023-03-07T10:11:41.273Z,-1.05
2023-03-07T10:15:03.824Z,-1.05
2023-03-07T10:18:15.327Z,-0.89
2023-03-07T10:21:40.804Z,-0.95
2023-03-07T10:25:01.035Z,-0.72
2023-03-07T10:28:18.249Z,-0.91
2023-03-07T10:31:34.870Z,-0.96
2023-03-07T10:34:38.167Z,-0.88
2023-03-07T10:37:56.701Z,-1.18
2023-03-07T10:41:12.746Z,-1.19
2023-03-07T10:44:19.319Z,-1.20
2023-03-07T10:47:28.928Z,-1.15
2023-03-07T10:50:41.029Z,-1.02
2023-03-07T10:53:43.459Z,-0.79
2023-03-07T10:57:16.510Z,-0.84
2023-03-07T11:00:19.351Z,-0.68
2023-03-07T11:03:31.238Z,-0.51
2023-03-07T11:06:44.783Z,-0.45
2023-03-07T11:09:48.624Z,-0.39
2023-03-07T11:12:51.639Z,-0.14
2023-03-07T11:16:12.043Z,0.05
2023-03-07T11:19:45.534Z,0.23
2023-03-07T11:22:48.079Z,0.02
2023-03-07T11:25:55.010Z,0.02
2023-03-07T11:29:12.225Z,-0.04
2023-03-07T11:32:33.015Z,-0.57
2023-03-07T11:35:43.754Z,-0.52
2023-03-07T11:39:01.842Z,-0.61
2023-03-07T11:42:15.904Z,-0.38
2023-03-07T11:45:35.729Z,-0.42
2023-03-07T11:49:02.338Z,-0.46
2023-03-07T11:52:19.621Z,-0.40
2023-03-07T11:55:46.644Z,-0.48
2023-03-07T11:59:00.982Z,-0.21
2023-03-07T12:02:13.446Z,-0.06
2023-03-07T12:06:00.148Z,-0.21
2023-03-07T12:09:20.294Z,-0.04
2023-03-07T12:12:52.041Z,-0.03
2023-03-07T12:15:57.266Z,0.02
2023-03-07T12:19:46.045Z,0.09
2023-03-07T12:23:00.724Z,-0.08
2023-03-07T12:26:22.582Z,-0.06
2023-03-07T12:29:27.860Z,0.05
2023-03-07T12:32:33.036Z,-0.08
2023-03-07T12:35:45.873Z,0.44
2023-03-07T12:38:53.678Z,0.24
2023-03-07T12:42:01.933Z,0.44
2023-03-07T12:45:11.074Z,0.39
2023-03-07T12:48:23.523Z,0.40
2023-03-07T12:51:29.914Z,0.61
2023-03-07T12:54:40.437Z,0.71
2023-03-07T12:57:45.256Z,0.76
2023-03-07T13:00:57.109Z,0.88
2023-03-07T13:04:18.648Z,0.78
2023-03-07T13:07:25.364Z,1.10
2023-03-07T13:10:28.064Z,0.86
2023-03-07T13:13:45.585Z,1.12
2023-03-07T13:16:49.684Z,1.03
2023-03-07T13:19:54.375Z,1.17
2023-03-07T13:22:59.837Z,1.07
2023-03-07T13:26:05.688Z,1.25
2023-03-07T13:29:09.416Z,1.09
2023-03-07T13:32:50.232Z,0.95
2023-03-07T13:35:57.923Z,1.10
2023-03-07T13:39:00.991Z,1.00
2023-03-07T13:42:03.726Z,1.10
2023-03-07T13:45:38.160Z,1.03
2023-03-07T13:48:40.378Z,1.04
2023-03-07T13:52:31.591Z,1.07
2023-03-07T13:55:41.253Z,1.14
2023-03-07T13:58:57.594Z,1.14
2023-03-07T14:02:04.352Z,1.12
2023-03-07T14:05:07.153Z,1.07
2023-03-07T14:08:14.194Z,0.97
2023-03-07T14:11:42.778Z,1.01
2023-03-07T14:15:05.700Z,1.03
2023-03-07T14:18:23.008Z,0.91
2023-03-07T14:21:46.848Z,0.87
2023-03-07T14:25:25.173Z,0.89
2023-03-07T14:28:28.824Z,0.96
2023-03-07T14:31:53.210Z,0.90
2023-03-07T14:34:55.852Z,1.05
2023-03-07T14:37:58.609Z,0.92
2023-03-07T14:41:09.538Z,1.14
2023-03-07T14:44:42.162Z,1.00
2023-03-07T14:47:44.490Z,0.95
2023-03-07T14:50:47.423Z,0.86
2023-03-07T14:53:50.564Z,0.84
2023-03-07T14:56:54.557Z,0.74
2023-03-07T15:00:23.179Z,0.84
2023-03-07T15:03:25.663Z,0.71
2023-03-07T15:06:30.319Z,0.54
2023-03-07T15:09:34.115Z,0.74
2023-03-07T15:12:36.622Z,0.55
2023-03-07T15:15:46.334Z,0.70
2023-03-07T15:18:55.758Z,0.67
2023-03-07T15:22:00.883Z,0.48
2023-03-07T15:25:04.428Z,0.43
2023-03-07T15:28:19.290Z,0.37
2023-03-07T15:31:23.864Z,0.63
2023-03-07T15:34:30.727Z,0.34
2023-03-07T15:37:33.875Z,0.29
2023-03-07T15:40:37.588Z,0.39
2023-03-07T15:43:39.954Z,0.38
2023-03-07T15:46:51.804Z,0.40
2023-03-07T15:49:57.143Z,0.41
2023-03-07T15:53:06.381Z,0.52
2023-03-07T15:56:22.442Z,0.63
2023-03-07T15:59:39.322Z,0.50
2023-03-07T16:02:47.099Z,0.39
2023-03-07T16:05:49.972Z,0.40
2023-03-07T16:08:52.419Z,0.45
2023-03-07T16:11:55.029Z,0.45
2023-03-07T16:14:57.473Z,0.52
2023-03-07T16:18:00.010Z,0.36
2023-03-07T16:21:03.437Z,0.25
2023-03-07T16:24:06.355Z,0.03
2023-03-07T16:27:18.538Z,-0.02
2023-03-07T16:30:24.142Z,0.02
2023-03-07T16:33:26.811Z,-0.03
2023-03-07T16:36:29.352Z,-0.19
2023-03-07T16:39:32.707Z,-0.00
2023-03-07T16:42:35.894Z,-0.11
2023-03-07T16:45:40.181Z,-0.25
2023-03-07T16:48:43.387Z,-0.21
2023-03-07T16:51:53.260Z,-0.17
2023-03-07T16:55:02.366Z,-0.19
2023-03-07T16:58:05.916Z,-0.02
2023-03-07T17:01:12.918Z,0.17
2023-03-07T17:04:15.673Z,0.10
2023-03-07T17:07:22.096Z,0.05
2023-03-07T17:10:29.100Z,0.20
2023-03-07T17:13:31.534Z,0.26
2023-03-07T17:16:36.726Z,0.30
2023-03-07T17:19:39.257Z,0.13
2023-03-07T17:22:41.706Z,0.31
2023-03-07T17:25:44.039Z,0.41
2023-03-07T17:28:46.518Z,0.48
2023-03-07T17:31:48.936Z,0.38
2023-03-07T17:34:51.412Z,0.52
2023-03-07T17:37:53.850Z,0.99
2023-03-07T17:40:57.053Z,0.67
2023-03-07T17:43:59.519Z,0.32
2023-03-07T17:47:01.908Z,-0.02
2023-03-07T17:50:05.822Z,-0.12
2023-03-07T17:53:08.308Z,-0.33
2023-03-07T17:56:16.409Z,-0.60
2023-03-07T17:59:18.765Z,-0.62
2023-03-07T18:02:21.190Z,-0.46
2023-03-07T18:05:26.111Z,-0.72
2023-03-07T18:08:31.592Z,-0.67
2023-03-07T18:11:35.308Z,-0.50
2023-03-07T18:14:38.478Z,-0.54
2023-03-07T18:17:47.719Z,-0.64
2023-03-07T18:21:05.103Z,-0.61
2023-03-07T18:24:29.069Z,-0.85
2023-03-07T18:27:31.462Z,-0.79
2023-03-07T18:30:34.263Z,-0.76
2023-03-07T18:33:37.709Z,-0.84
2023-03-07T18:36:41.390Z,-1.06
2023-03-07T18:39:43.839Z,-0.88
2023-03-07T18:42:46.255Z,-1.01
2023-03-07T18:45:48.606Z,-0.91
2023-03-07T18:48:51.809Z,-0.71
2023-03-07T18:51:54.296Z,-0.64
2023-03-07T18:54:56.757Z,-0.91
2023-03-07T18:58:00.053Z,-0.93
2023-03-07T19:01:13.694Z,-0.54
2023-03-07T19:04:16.561Z,-0.52
2023-03-07T19:07:18.937Z,-0.58
2023-03-07T19:10:21.283Z,-0.37
2023-03-07T19:13:23.623Z,-0.62
2023-03-07T19:16:29.900Z,-0.59
2023-03-07T19:19:32.337Z,-0.52
2023-03-07T19:22:34.917Z,-0.52
2023-03-07T19:25:37.437Z,-0.37
2023-03-07T19:28:40.676Z,-0.25
2023-03-07T19:31:46.109Z,-0.43
2023-03-07T19:34:51.215Z,-0.32
2023-03-07T19:37:53.537Z,-0.31
2023-03-07T19:40:57.058Z,-0.42
2023-03-07T19:44:00.723Z,-0.59
2023-03-07T19:47:03.162Z,-0.45
2023-03-07T19:50:05.876Z,-0.61
2023-03-07T19:53:08.224Z,-0.53
2023-03-07T19:56:12.346Z,-0.56
2023-03-07T19:59:15.057Z,-0.77
2023-03-07T20:02:17.447Z,-0.60
2023-03-07T20:05:20.272Z,-0.62
2023-03-07T20:08:22.650Z,-0.62
2023-03-07T20:11:30.290Z,-0.46
2023-03-07T20:14:32.586Z,-0.61
2023-03-07T20:17:34.991Z,-0.52
2023-03-07T20:20:37.603Z,-0.60
2023-03-07T20:23:40.531Z,-0.65
2023-03-07T20:26:42.973Z,-0.67
2023-03-07T20:29:45.280Z,-0.53
2023-03-07T20:32:48.207Z,-0.68
2023-03-07T20:36:04.932Z,-0.61
2023-03-07T20:39:13.137Z,-0.62
2023-03-07T20:42:15.664Z,-0.66
2023-03-07T20:45:18.073Z,-0.74
2023-03-07T20:48:20.682Z,-0.72
2023-03-07T20:51:25.247Z,-0.73
2023-03-07T20:54:27.623Z,-0.72
2023-03-07T20:57:30.083Z,-0.84
2023-03-07T21:00:32.381Z,-0.72
2023-03-07T21:03:35.342Z,-0.79
2023-03-07T21:06:39.946Z,-0.83
2023-03-07T21:09:42.346Z,-0.85
2023-03-07T21:12:44.696Z,-0.97
2023-03-07T21:15:56.944Z,-0.88
2023-03-07T21:19:01.626Z,-0.90
2023-03-07T21:22:04.489Z,-0.87
2023-03-07T21:25:07.384Z,-0.87
2023-03-07T21:28:09.719Z,-0.93
2023-03-07T21:31:14.876Z,-0.91
2023-03-07T21:34:17.277Z,-0.98
2023-03-07T21:37:20.720Z,-0.98
2023-03-07T21:40:23.230Z,-0.92
2023-03-07T21:43:25.740Z,-1.14
2023-03-07T21:46:28.388Z,-0.96
2023-03-07T21:49:31.841Z,-1.04
2023-03-07T21:52:34.172Z,-1.16
2023-03-07T21:55:36.731Z,-1.07
2023-03-07T21:58:39.802Z,-1.02
2023-03-07T22:01:42.192Z,-0.94
2023-03-07T22:04:44.901Z,-0.95
2023-03-07T22:07:49.036Z,-0.95
2023-03-07T22:11:00.543Z,-0.88
2023-03-07T22:14:03.449Z,-0.88
2023-03-07T22:17:05.984Z,-0.94
2023-03-07T22:20:10.387Z,-0.99
2023-03-07T22:23:12.733Z,-0.92
2023-03-07T22:26:15.962Z,-1.08
2023-03-07T22:29:18.272Z,-1.08
2023-03-07T22:32:20.630Z,-1.03
2023-03-07T22:35:23.091Z,-0.98
2023-03-07T22:38:25.843Z,-1.02
2023-03-07T22:41:28.912Z,-1.05
2023-03-07T22:44:31.325Z,-1.12
2023-03-07T22:47:34.700Z,-1.22
2023-03-07T22:50:39.327Z,-1.04
2023-03-07T22:53:41.712Z,-1.18
2023-03-07T22:56:44.072Z,-0.99
2023-03-07T22:59:48.591Z,-1.06
2023-03-07T23:02:50.970Z,-1.05
2023-03-07T23:05:53.398Z,-1.09
2023-03-07T23:08:56.549Z,-1.02
2023-03-07T23:11:59.054Z,-1.07
2023-03-07T23:15:01.480Z,-1.11
2023-03-07T23:18:03.993Z,-1.08
2023-03-07T23:21:07.622Z,-1.39
2023-03-07T23:24:11.422Z,-1.07
2023-03-07T23:27:13.645Z,-0.95
2023-03-07T23:30:17.862Z,-1.13
2023-03-07T23:33:20.285Z,-1.04
2023-03-07T23:36:22.664Z,-0.92
2023-03-07T23:39:26.121Z,-1.03
2023-03-07T23:42:28.645Z,-1.00
2023-03-07T23:45:31.323Z,-1.01
2023-03-07T23:48:33.663Z,-1.11
2023-03-07T23:51:36.003Z,-0.99
2023-03-07T23:54:38.453Z,-1.09
2023-03-07T23:57:41.192Z,-0.98
